Time;durP1;ratioP1;P1;durP2;ratioP2;P2;SDS_P1;SDS_P2;PMS_P1;PMS_P2;Temp;Humidity;BMP_temperature;BMP_pressure;BME280_temperature;BME280_humidity;BME280_pressure;Samples;Min_cycle;Max_cycle;Signal;HPM_P1;HPM_P2
2023/10/28 00:01:46;;;;;;;8.93;4.40;;;;;;;11.31;100.00;98704.19;5143379;28;20670;-76
2023/10/28 00:04:17;;;;;;;8.68;4.55;;;;;;;11.21;100.00;98701.34;5143975;28;20080;-76
2023/10/28 00:06:47;;;;;;;7.93;4.45;;;;;;;11.22;100.00;98712.63;5142917;28;20042;-76
2023/10/28 00:09:19;;;;;;;8.85;4.57;;;;;;;11.26;100.00;98711.50;5143519;28;20037;-76
2023/10/28 00:11:50;;;;;;;8.68;5.50;;;;;;;11.18;100.00;98709.41;5138309;28;20037;-77
2023/10/28 00:14:21;;;;;;;9.27;5.32;;;;;;;11.16;100.00;98716.53;5140963;28;20027;-75
2023/10/28 00:16:52;;;;;;;8.70;5.22;;;;;;;11.24;100.00;98708.97;5148557;28;20033;-75
2023/10/28 00:19:22;;;;;;;10.90;6.07;;;;;;;11.37;100.00;98714.22;5133192;28;20298;-77
2023/10/28 00:21:52;;;;;;;8.40;5.05;;;;;;;11.36;100.00;98715.16;5140992;28;20034;-75
2023/10/28 00:24:23;;;;;;;9.88;5.68;;;;;;;11.31;100.00;98710.22;5143920;28;20034;-76
2023/10/28 00:26:53;;;;;;;9.90;5.57;;;;;;;11.26;100.00;98720.16;5136496;28;20041;-75
2023/10/28 00:29:23;;;;;;;9.88;5.93;;;;;;;11.29;100.00;98704.28;5137080;28;20555;-76
2023/10/28 00:31:54;;;;;;;9.48;6.15;;;;;;;11.38;100.00;98711.50;5117930;28;20094;-76
2023/10/28 00:34:29;;;;;;;10.73;6.25;;;;;;;11.33;100.00;98711.00;5132971;28;20528;-73
2023/10/28 00:37:01;;;;;;;10.93;6.40;;;;;;;11.43;100.00;98714.63;5132793;28;20418;-76
2023/10/28 00:39:32;;;;;;;11.23;6.43;;;;;;;11.37;100.00;98715.06;5135314;28;20023;-76
2023/10/28 00:42:02;;;;;;;13.10;6.90;;;;;;;11.34;100.00;98710.03;5140134;28;20023;-76
2023/10/28 00:44:32;;;;;;;12.23;7.38;;;;;;;11.41;100.00;98711.28;5137289;28;20034;-76
2023/10/28 00:47:03;;;;;;;14.85;7.38;;;;;;;11.16;100.00;98720.91;5138483;28;20058;-75
2023/10/28 00:49:34;;;;;;;15.43;8.02;;;;;;;11.12;100.00;98727.28;5136833;28;20027;-74
2023/10/28 00:52:04;;;;;;;15.95;7.55;;;;;;;11.24;100.00;98724.66;5135742;28;20030;-76
2023/10/28 00:54:35;;;;;;;16.50;7.68;;;;;;;11.20;100.00;98725.81;5134834;28;20049;-75
2023/10/28 00:57:05;;;;;;;17.23;7.72;;;;;;;11.26;100.00;98722.78;5144058;28;20032;-76
2023/10/28 00:59:36;;;;;;;13.52;7.70;;;;;;;11.20;100.00;98719.75;5142632;28;20022;-77
2023/10/28 01:02:06;;;;;;;13.73;7.55;;;;;;;11.17;100.00;98726.03;5140406;28;20037;-75
2023/10/28 01:04:37;;;;;;;12.15;6.68;;;;;;;11.10;100.00;98732.59;5119286;28;20084;-75
2023/10/28 01:07:08;;;;;;;14.70;7.40;;;;;;;11.06;100.00;98736.38;5141983;28;20539;-76
2023/10/28 01:09:46;;;;;;;12.90;7.38;;;;;;;11.12;100.00;98746.41;5143587;28;20030;-76
2023/10/28 01:12:16;;;;;;;13.30;7.65;;;;;;;11.06;100.00;98746.81;5141354;28;20039;-74
2023/10/28 01:14:47;;;;;;;12.27;6.78;;;;;;;11.09;100.00;98757.06;5148101;28;20033;-77
2023/10/28 01:17:17;;;;;;;14.60;6.97;;;;;;;11.13;100.00;98757.72;5197665;22;20041;-74
2023/10/28 01:19:47;;;;;;;12.30;7.38;;;;;;;11.10;100.00;98756.13;5209585;28;20029;-74
2023/10/28 01:22:18;;;;;;;14.52;7.88;;;;;;;11.16;100.00;98763.59;5214369;28;20103;-74
2023/10/28 01:24:49;;;;;;;12.68;7.35;;;;;;;11.18;100.00;98761.69;5195554;28;20021;-74
2023/10/28 01:27:20;;;;;;;13.55;7.18;;;;;;;11.19;100.00;98757.28;5222523;28;20444;-72
2023/10/28 01:29:51;;;;;;;12.93;7.10;;;;;;;11.16;100.00;98760.13;5220752;28;20070;-74
2023/10/28 01:32:21;;;;;;;15.43;7.45;;;;;;;11.07;100.00;98761.56;5226328;28;20063;-73
2023/10/28 01:34:52;;;;;;;13.95;7.47;;;;;;;11.05;100.00;98760.84;5223681;28;20047;-74
2023/10/28 01:37:23;;;;;;;13.00;7.50;;;;;;;11.02;100.00;98758.44;5223815;28;20043;-74
2023/10/28 01:39:53;;;;;;;15.73;7.68;;;;;;;11.02;100.00;98754.97;5224139;28;20029;-75
2023/10/28 01:42:24;;;;;;;14.88;8.00;;;;;;;11.05;100.00;98758.22;5210119;28;20024;-71
2023/10/28 01:44:54;;;;;;;15.82;8.75;;;;;;;11.01;100.00;98752.47;5231556;28;20024;-74
2023/10/28 01:47:24;;;;;;;15.20;7.97;;;;;;;11.02;100.00;98761.03;5234654;28;20411;-73
2023/10/28 01:49:55;;;;;;;13.80;7.65;;;;;;;11.09;100.00;98757.06;5212905;28;20049;-73
2023/10/28 01:52:25;;;;;;;13.27;7.85;;;;;;;11.08;100.00;98765.03;5232741;28;20021;-73
2023/10/28 01:54:55;;;;;;;14.65;8.40;;;;;;;11.04;100.00;98764.38;5210376;28;20047;-73
2023/10/28 01:57:26;;;;;;;13.68;7.63;;;;;;;11.05;100.00;98766.06;5214467;28;20498;-73
2023/10/28 01:59:58;;;;;;;14.52;8.30;;;;;;;11.02;100.00;98769.81;5210595;28;20036;-73
2023/10/28 02:02:30;;;;;;;16.67;8.93;;;;;;;11.08;100.00;98765.03;5230377;28;20268;-73
2023/10/28 02:05:01;;;;;;;14.30;7.85;;;;;;;11.02;100.00;98766.28;5212833;28;20025;-74
2023/10/28 02:07:33;;;;;;;15.98;8.88;;;;;;;10.96;100.00;98768.44;5229152;28;20021;-74
2023/10/28 02:10:05;;;;;;;13.35;8.00;;;;;;;10.92;100.00;98764.38;5231317;28;20016;-74
2023/10/28 02:12:35;;;;;;;15.05;8.65;;;;;;;10.90;100.00;98760.16;5230300;28;20116;-75
2023/10/28 02:15:08;;;;;;;15.10;8.30;;;;;;;10.90;100.00;98753.19;5231858;28;20112;-73
2023/10/28 02:17:38;;;;;;;14.48;8.43;;;;;;;10.82;100.00;98759.84;5210217;28;20032;-74
2023/10/28 02:20:10;;;;;;;12.82;7.95;;;;;;;10.80;100.00;98753.84;5233981;28;20021;-74
2023/10/28 02:22:40;;;;;;;13.40;7.38;;;;;;;10.72;100.00;98758.75;5232611;28;20269;-74
2023/10/28 02:25:10;;;;;;;15.10;7.63;;;;;;;10.74;100.00;98764.72;5231601;28;20021;-74
2023/10/28 02:27:41;;;;;;;13.90;8.05;;;;;;;10.62;100.00;98770.72;5215087;28;20028;-74
2023/10/28 02:30:13;;;;;;;13.50;7.55;;;;;;;10.66;100.00;98769.63;5234727;28;20024;-74
2023/10/28 02:32:43;;;;;;;14.23;8.35;;;;;;;10.62;100.00;98768.13;5237693;28;20673;-73
2023/10/28 02:35:14;;;;;;;16.27;8.45;;;;;;;10.69;100.00;98772.84;5232935;28;20120;-74
2023/10/28 02:37:44;;;;;;;12.40;7.55;;;;;;;10.62;100.00;98776.81;5223988;28;20494;-74
2023/10/28 02:40:14;;;;;;;14.95;8.05;;;;;;;10.65;100.00;98773.16;5228063;28;20028;-74
2023/10/28 02:42:45;;;;;;;16.25;8.48;;;;;;;10.66;100.00;98772.22;5228337;28;20822;-74
2023/10/28 02:45:15;;;;;;;17.92;8.55;;;;;;;10.70;100.00;98768.47;5231539;28;20127;-73
2023/10/28 02:47:45;;;;;;;14.98;8.05;;;;;;;10.67;100.00;98766.88;5225012;28;20028;-74
2023/10/28 02:50:17;;;;;;;15.40;8.60;;;;;;;10.74;100.00;98764.72;5213663;28;20044;-74
2023/10/28 02:52:50;;;;;;;14.93;8.60;;;;;;;10.76;100.00;98776.75;5227478;28;20110;-73
2023/10/28 02:55:21;;;;;;;14.52;7.53;;;;;;;10.85;100.00;98783.16;5232669;28;20493;-73
2023/10/28 02:57:52;;;;;;;14.07;7.90;;;;;;;10.78;100.00;98784.47;5228066;28;20035;-74
2023/10/28 03:00:22;;;;;;;13.55;7.60;;;;;;;10.75;100.00;98782.06;5210494;28;20029;-73
2023/10/28 03:02:55;;;;;;;19.17;8.18;;;;;;;10.71;100.00;98775.38;5213421;28;20482;-74
2023/10/28 03:05:25;;;;;;;14.23;7.55;;;;;;;10.63;100.00;98777.63;5239420;28;20431;-73
2023/10/28 03:07:56;;;;;;;16.05;7.13;;;;;;;10.67;100.00;98776.50;5218439;28;20039;-73
2023/10/28 03:10:26;;;;;;;14.30;7.88;;;;;;;10.66;100.00;98783.50;5223217;28;20028;-73
2023/10/28 03:12:56;;;;;;;17.02;7.75;;;;;;;10.70;100.00;98779.75;5206374;28;20052;-74
2023/10/28 03:15:27;;;;;;;14.50;7.55;;;;;;;10.61;100.00;98780.34;5230894;28;20039;-74
2023/10/28 03:17:58;;;;;;;12.52;7.03;;;;;;;10.67;100.00;98773.91;5214388;28;20082;-74
2023/10/28 03:20:28;;;;;;;13.30;7.00;;;;;;;10.53;100.00;98787.00;5226461;28;20502;-73
2023/10/28 03:22:58;;;;;;;12.18;6.97;;;;;;;10.40;100.00;98770.44;5228472;28;20020;-74
2023/10/28 03:25:31;;;;;;;14.43;7.43;;;;;;;10.45;100.00;98779.66;5214636;28;20457;-74
2023/10/28 03:28:01;;;;;;;14.35;7.82;;;;;;;10.44;100.00;98767.53;5231225;28;20199;-74
2023/10/28 03:30:32;;;;;;;14.15;7.72;;;;;;;10.59;100.00;98784.00;5230088;28;20023;-72
2023/10/28 03:33:02;;;;;;;14.32;7.45;;;;;;;10.42;100.00;98779.84;5232683;28;20462;-73
2023/10/28 03:35:33;;;;;;;14.23;7.07;;;;;;;10.35;100.00;98773.31;5228247;28;20105;-73
2023/10/28 03:38:03;;;;;;;17.48;7.65;;;;;;;10.35;100.00;98782.94;5224333;28;20426;-74
2023/10/28 03:40:33;;;;;;;16.65;8.63;;;;;;;10.28;100.00;98786.84;5226398;28;20031;-72
2023/10/28 03:43:04;;;;;;;16.65;7.85;;;;;;;10.30;100.00;98790.22;5234618;28;20020;-74
2023/10/28 03:45:36;;;;;;;14.05;7.93;;;;;;;10.20;100.00;98783.91;5230984;28;20241;-73
2023/10/28 03:48:07;;;;;;;14.93;8.00;;;;;;;10.14;100.00;98784.31;5229817;28;20024;-73
2023/10/28 03:50:37;;;;;;;20.15;7.97;;;;;;;10.12;100.00;98780.91;5229156;28;20040;-74
2023/10/28 03:53:07;;;;;;;15.50;7.47;;;;;;;10.14;100.00;98789.53;5228709;28;20020;-74
2023/10/28 03:55:37;;;;;;;11.57;6.65;;;;;;;10.14;100.00;98782.50;5224900;28;20017;-73
2023/10/28 03:58:08;;;;;;;12.93;6.70;;;;;;;10.13;100.00;98783.44;5230061;28;20031;-74
2023/10/28 04:00:38;;;;;;;14.68;5.43;;;;;;;10.07;100.00;98788.19;5226671;28;20032;-74
2023/10/28 04:03:09;;;;;;;13.52;5.13;;;;;;;10.00;100.00;98794.72;5227540;28;20082;-73
2023/10/28 04:05:39;;;;;;;16.02;5.10;;;;;;;9.88;100.00;98792.84;5231011;28;20029;-73
2023/10/28 04:08:09;;;;;;;12.90;5.43;;;;;;;9.88;100.00;98798.91;5230560;28;20027;-73
2023/10/28 04:10:40;;;;;;;10.45;4.85;;;;;;;9.95;100.00;98804.56;5225903;28;20135;-73
2023/10/28 04:13:12;;;;;;;11.60;5.10;;;;;;;9.94;100.00;98801.16;5214280;28;20402;-74
2023/10/28 04:15:46;;;;;;;13.18;5.00;;;;;;;9.94;100.00;98801.16;5228620;28;20464;-74
2023/10/28 04:18:16;;;;;;;13.43;5.28;;;;;;;9.95;100.00;98791.53;5230468;28;20039;-74
2023/10/28 04:20:48;;;;;;;16.90;6.13;;;;;;;10.00;100.00;98797.31;5228143;28;20025;-72
2023/10/28 04:23:18;;;;;;;11.10;5.80;;;;;;;10.09;100.00;98802.00;5225656;28;20430;-72
2023/10/28 04:25:48;;;;;;;13.35;5.85;;;;;;;10.11;100.00;98805.34;5227670;28;20052;-74
2023/10/28 04:28:19;;;;;;;12.68;6.07;;;;;;;10.08;100.00;98805.53;5225370;28;20024;-73
2023/10/28 04:30:57;;;;;;;13.32;6.53;;;;;;;10.03;100.00;98802.38;5216138;28;20521;-73
2023/10/28 04:33:27;;;;;;;15.52;5.68;;;;;;;10.07;100.00;98798.66;5225850;28;20028;-74
2023/10/28 04:35:57;;;;;;;10.57;5.55;;;;;;;9.98;100.00;98801.81;5214793;28;20477;-74
2023/10/28 04:38:29;;;;;;;9.98;5.70;;;;;;;10.01;100.00;98805.06;5228364;28;20466;-73
2023/10/28 04:40:59;;;;;;;12.43;5.53;;;;;;;9.99;100.00;98806.91;5229460;28;20036;-73
2023/10/28 04:43:29;;;;;;;13.73;6.15;;;;;;;9.82;100.00;98814.94;5229377;28;20028;-73
2023/10/28 04:46:00;;;;;;;9.75;5.95;;;;;;;9.88;100.00;98816.31;5225692;28;20593;-74
2023/10/28 04:48:30;;;;;;;10.02;5.90;;;;;;;9.93;100.00;98817.72;5209555;28;20048;-73
2023/10/28 04:51:02;;;;;;;12.70;6.65;;;;;;;9.92;100.00;98813.44;5229381;28;20021;-73
2023/10/28 04:53:32;;;;;;;13.82;5.90;;;;;;;9.90;100.00;98810.09;5226324;28;20032;-73
2023/10/28 04:56:03;;;;;;;16.88;5.45;;;;;;;9.85;100.00;98816.53;5231345;28;20028;-73
2023/10/28 04:58:34;;;;;;;10.52;5.43;;;;;;;9.87;100.00;98820.72;5225375;28;20112;-73
2023/10/28 05:01:05;;;;;;;11.68;5.03;;;;;;;9.90;100.00;98819.69;5226762;28;20056;-74
2023/10/28 05:03:35;;;;;;;12.65;6.65;;;;;;;9.86;100.00;98815.59;5228859;28;20482;-74
2023/10/28 05:06:09;;;;;;;16.60;6.38;;;;;;;9.86;100.00;98820.81;5207835;28;20102;-74
2023/10/28 05:08:39;;;;;;;14.20;5.22;;;;;;;9.85;100.00;98819.13;5224271;28;20490;-73
2023/10/28 05:11:15;;;;;;;14.30;5.07;;;;;;;9.83;100.00;98821.81;5225356;28;20032;-74
2023/10/28 05:13:46;;;;;;;11.60;4.90;;;;;;;9.80;100.00;98824.63;5208628;28;20064;-74
2023/10/28 05:16:16;;;;;;;9.38;4.68;;;;;;;9.76;100.00;98827.50;5221268;28;20059;-73
2023/10/28 05:18:47;;;;;;;11.60;4.93;;;;;;;9.67;100.00;98826.28;5224193;28;20048;-73
2023/10/28 05:21:17;;;;;;;7.97;4.63;;;;;;;9.74;100.00;98831.97;5229825;28;20028;-73
2023/10/28 05:23:47;;;;;;;10.18;4.47;;;;;;;9.61;100.00;98826.66;5227452;28;20064;-74
2023/10/28 05:26:18;;;;;;;7.78;4.80;;;;;;;9.67;100.00;98833.28;5236216;28;20074;-74
2023/10/28 05:28:50;;;;;;;7.90;4.60;;;;;;;9.74;100.00;98835.44;5226933;28;20028;-73
2023/10/28 05:31:21;;;;;;;9.40;5.13;;;;;;;9.77;100.00;98830.03;5232422;28;20024;-73
2023/10/28 05:33:51;;;;;;;10.00;5.47;;;;;;;9.86;100.00;98836.47;5207541;28;20035;-73
2023/10/28 05:36:22;;;;;;;9.48;5.15;;;;;;;9.93;100.00;98840.34;5212375;28;20507;-73
2023/10/28 05:38:54;;;;;;;10.60;5.70;;;;;;;9.87;100.00;98838.13;5224419;28;20051;-73
2023/10/28 05:41:24;;;;;;;8.10;4.90;;;;;;;9.82;100.00;98850.63;5226749;28;20028;-71
2023/10/28 05:43:55;;;;;;;9.20;5.60;;;;;;;9.84;100.00;98848.75;5229600;28;20043;-74
2023/10/28 05:46:25;;;;;;;8.80;4.68;;;;;;;9.87;100.00;98848.56;5229800;28;20462;-73
2023/10/28 05:48:56;;;;;;;11.50;5.80;;;;;;;9.86;100.00;98854.72;5229058;28;20037;-73
2023/10/28 05:51:27;;;;;;;9.75;5.25;;;;;;;9.88;100.00;98855.47;5227955;28;20029;-73
2023/10/28 05:53:58;;;;;;;8.65;4.97;;;;;;;9.91;100.00;98850.06;5223238;28;20048;-74
2023/10/28 05:56:28;;;;;;;8.07;4.40;;;;;;;9.91;100.00;98855.28;5217540;28;20060;-73
2023/10/28 05:58:59;;;;;;;9.52;4.40;;;;;;;9.86;100.00;98863.38;5227528;28;20025;-74
2023/10/28 06:01:29;;;;;;;8.73;4.53;;;;;;;9.84;100.00;98869.63;5229737;28;20028;-73
2023/10/28 06:04:00;;;;;;;8.20;4.53;;;;;;;9.94;100.00;98871.59;5222357;28;20028;-74
2023/10/28 06:06:31;;;;;;;8.05;4.30;;;;;;;9.91;100.00;98871.78;5222730;28;20104;-73
2023/10/28 06:09:01;;;;;;;8.70;4.30;;;;;;;9.84;100.00;98877.47;5229868;28;20626;-73
2023/10/28 06:11:32;;;;;;;8.30;4.63;;;;;;;9.90;100.00;98874.47;5231852;28;20512;-73
2023/10/28 06:14:03;;;;;;;7.75;3.72;;;;;;;9.82;100.00;98874.94;5233293;28;20473;-74
2023/10/28 06:16:34;;;;;;;8.73;4.22;;;;;;;9.85;100.00;98881.75;5228839;28;20021;-73
2023/10/28 06:19:05;;;;;;;6.90;3.72;;;;;;;9.90;100.00;98874.47;5234547;28;20017;-73
2023/10/28 06:21:35;;;;;;;7.65;3.53;;;;;;;9.89;100.00;98873.66;5231842;28;20532;-74
2023/10/28 06:24:06;;;;;;;7.55;3.53;;;;;;;9.97;100.00;98867.97;5231664;28;20021;-73
2023/10/28 06:26:36;;;;;;;7.18;3.30;;;;;;;10.03;100.00;98876.28;5227270;28;20166;-73
2023/10/28 06:29:08;;;;;;;5.88;3.20;;;;;;;10.17;100.00;98881.50;5230055;28;20074;-74
2023/10/28 06:31:40;;;;;;;9.52;3.10;;;;;;;10.14;100.00;98880.88;5210373;28;20024;-73
2023/10/28 06:34:10;;;;;;;10.57;3.40;;;;;;;10.08;100.00;98878.63;5232632;28;20017;-72
2023/10/28 06:36:41;;;;;;;6.88;3.05;;;;;;;10.09;100.00;98885.50;5228997;28;20032;-74
2023/10/28 06:39:11;;;;;;;6.38;3.00;;;;;;;10.10;100.00;98882.81;5227534;28;20394;-74
2023/10/28 06:41:41;;;;;;;5.40;3.05;;;;;;;10.15;100.00;98882.56;5225740;28;20056;-74
2023/10/28 06:44:12;;;;;;;9.45;2.70;;;;;;;10.19;100.00;98887.47;5219849;28;20420;-74
2023/10/28 06:46:42;;;;;;;7.13;2.92;;;;;;;10.22;100.00;98891.66;5220564;28;20039;-75
2023/10/28 06:49:12;;;;;;;4.63;2.90;;;;;;;10.27;100.00;98885.25;5223670;28;20090;-75
2023/10/28 06:51:43;;;;;;;7.07;2.85;;;;;;;10.31;100.00;98889.34;5218134;28;20025;-74
2023/10/28 06:54:14;;;;;;;5.63;2.95;;;;;;;10.30;100.00;98895.50;5204847;28;20064;-72
2023/10/28 06:56:45;;;;;;;6.07;2.78;;;;;;;10.38;100.00;98902.84;5201402;28;20031;-72
2023/10/28 06:59:15;;;;;;;5.93;2.88;;;;;;;10.43;100.00;98903.41;5221585;28;20033;-72
2023/10/28 07:01:46;;;;;;;6.05;2.90;;;;;;;10.45;100.00;98898.91;5218862;28;20036;-73
2023/10/28 07:04:16;;;;;;;9.85;3.40;;;;;;;10.56;100.00;98907.81;5222314;28;20444;-72
2023/10/28 07:06:46;;;;;;;9.07;3.50;;;;;;;10.60;100.00;98911.03;5221960;28;20033;-72
2023/10/28 07:09:18;;;;;;;8.70;3.67;;;;;;;10.64;100.00;98908.16;5221707;28;20012;-73
2023/10/28 07:11:48;;;;;;;8.60;3.67;;;;;;;10.77;100.00;98916.06;5222214;28;20032;-72
2023/10/28 07:14:18;;;;;;;9.48;4.38;;;;;;;10.69;100.00;98923.53;5222129;28;20082;-72
2023/10/28 07:19:21;;;;;;;12.85;5.65;;;;;;;10.78;100.00;98928.19;5190340;28;20048;-78
2023/10/28 07:21:52;;;;;;;12.25;4.75;;;;;;;10.82;100.00;98929.69;5190159;28;20029;-76
2023/10/28 07:24:23;;;;;;;10.85;5.53;;;;;;;10.79;100.00;98935.09;5201775;28;20483;-77
2023/10/28 07:26:53;;;;;;;21.33;5.75;;;;;;;10.82;100.00;98938.34;5197482;28;20020;-73
2023/10/28 07:29:25;;;;;;;10.75;5.30;;;;;;;10.86;100.00;98944.22;5195171;28;20384;-73
2023/10/28 07:31:56;;;;;;;15.65;6.07;;;;;;;10.89;100.00;98950.09;5202512;28;20078;-75
2023/10/28 07:34:27;;;;;;;12.38;5.90;;;;;;;10.84;100.00;98949.53;5198269;28;20044;-75
2023/10/28 07:37:01;;;;;;;11.88;5.30;;;;;;;10.90;100.00;98959.63;5196840;28;20037;-75
2023/10/28 07:39:31;;;;;;;10.93;5.53;;;;;;;11.02;100.00;98956.22;5191959;28;20030;-75
2023/10/28 07:42:02;;;;;;;11.85;5.47;;;;;;;11.04;100.00;98956.97;5201402;28;20029;-75
2023/10/28 07:44:32;;;;;;;12.30;6.07;;;;;;;11.06;100.00;98965.53;5201264;28;20029;-75
2023/10/28 07:47:03;;;;;;;12.88;5.93;;;;;;;11.05;100.00;98964.72;5185235;28;20025;-76
2023/10/28 07:49:33;;;;;;;14.98;5.70;;;;;;;11.11;100.00;98966.13;5204899;28;20017;-76
2023/10/28 07:52:04;;;;;;;10.18;5.47;;;;;;;11.13;100.00;98967.69;5200889;28;20028;-76
2023/10/28 07:54:34;;;;;;;10.52;4.68;;;;;;;11.12;100.00;98966.00;5202760;28;20048;-76
2023/10/28 07:57:04;;;;;;;8.32;4.57;;;;;;;11.12;100.00;98973.84;5208676;28;20028;-76
2023/10/28 07:59:35;;;;;;;12.88;5.50;;;;;;;11.13;100.00;98972.91;5200487;28;20032;-75
2023/10/28 08:02:06;;;;;;;11.68;5.20;;;;;;;11.17;100.00;98977.03;5207581;28;20037;-75
2023/10/28 08:04:36;;;;;;;9.05;4.55;;;;;;;11.29;100.00;98981.44;5199393;28;20261;-74
2023/10/28 08:07:06;;;;;;;11.93;4.95;;;;;;;11.22;100.00;98977.56;5184664;28;20375;-75
2023/10/28 08:09:37;;;;;;;8.88;4.88;;;;;;;11.25;100.00;98987.00;5199568;28;20017;-75
2023/10/28 08:12:07;;;;;;;7.88;4.10;;;;;;;11.44;100.00;98985.72;5210801;28;20067;-76
2023/10/28 08:14:38;;;;;;;10.50;4.38;;;;;;;11.37;100.00;98992.28;5206151;28;20031;-73
2023/10/28 08:17:09;;;;;;;9.25;4.32;;;;;;;11.52;100.00;98983.47;5206553;28;20037;-77
2023/10/28 08:19:40;;;;;;;7.70;4.60;;;;;;;11.59;100.00;98994.41;5204721;28;20029;-73
2023/10/28 08:22:12;;;;;;;12.52;4.80;;;;;;;11.62;100.00;98991.56;5206277;28;20041;-75
2023/10/28 08:24:42;;;;;;;8.18;4.30;;;;;;;11.65;100.00;98991.38;5206176;28;20112;-74
2023/10/28 08:27:13;;;;;;;9.63;4.00;;;;;;;11.64;100.00;98997.53;5202974;28;20166;-76
2023/10/28 08:29:43;;;;;;;10.52;4.20;;;;;;;11.69;100.00;99009.41;5180952;28;20103;-72
2023/10/28 08:32:17;;;;;;;11.40;4.57;;;;;;;11.68;100.00;99002.50;5180389;28;20341;-75
2023/10/28 08:34:48;;;;;;;11.00;4.22;;;;;;;11.63;100.00;99003.72;5177903;28;20192;-75
2023/10/28 08:37:21;;;;;;;10.05;4.30;;;;;;;11.62;100.00;99008.09;5200030;28;20037;-76
2023/10/28 08:39:53;;;;;;;8.95;4.47;;;;;;;11.61;100.00;99009.03;5195549;28;20033;-77
2023/10/28 08:42:23;;;;;;;8.73;4.10;;;;;;;11.58;100.00;99011.84;5199445;28;20028;-73
2023/10/28 08:44:58;;;;;;;9.07;4.28;;;;;;;11.54;100.00;99015.59;5206016;28;20225;-75
2023/10/28 08:47:30;;;;;;;6.85;3.65;;;;;;;11.59;100.00;99017.94;5183692;28;20124;-77
2023/10/28 08:50:06;;;;;;;11.63;4.68;;;;;;;11.52;100.00;99022.69;5199404;28;20028;-73
2023/10/28 08:52:39;;;;;;;14.52;4.55;;;;;;;11.55;100.00;99019.88;5197517;28;20103;-73
2023/10/28 08:55:10;;;;;;;9.95;4.25;;;;;;;11.69;100.00;99017.25;5201552;28;20421;-75
2023/10/28 08:57:44;;;;;;;8.77;4.35;;;;;;;11.72;100.00;99018.81;5204039;28;20025;-74
2023/10/28 09:00:15;;;;;;;7.13;4.15;;;;;;;11.97;100.00;99016.28;5187047;28;20041;-76
2023/10/28 09:02:48;;;;;;;9.52;4.25;;;;;;;11.97;100.00;99026.75;5205329;28;20069;-76
2023/10/28 09:05:21;;;;;;;8.07;4.30;;;;;;;12.03;100.00;99026.34;5205596;28;20044;-75
2023/10/28 09:07:51;;;;;;;10.40;4.85;;;;;;;12.06;100.00;99037.47;5203787;28;20033;-74
2023/10/28 09:10:21;;;;;;;8.90;4.30;;;;;;;12.06;100.00;99037.47;5192528;28;20091;-72
2023/10/28 09:12:52;;;;;;;8.07;3.92;;;;;;;12.13;100.00;99033.47;5186852;28;20040;-75
2023/10/28 09:15:22;;;;;;;5.95;3.20;;;;;;;12.17;100.00;99042.84;5202776;28;21726;-75
2023/10/28 09:17:53;;;;;;;6.97;3.83;;;;;;;12.03;100.00;99047.28;5210699;28;20540;-76
2023/10/28 09:20:24;;;;;;;8.05;3.67;;;;;;;12.04;100.00;99041.97;5208113;28;20510;-73
2023/10/28 09:22:54;;;;;;;5.88;3.40;;;;;;;12.04;100.00;99047.19;5203769;28;20071;-74
2023/10/28 09:25:25;;;;;;;8.25;3.70;;;;;;;12.03;100.00;99050.75;5182897;28;20103;-73
2023/10/28 09:27:55;;;;;;;6.40;3.80;;;;;;;12.13;100.00;99056.22;5205417;28;20029;-76
2023/10/28 09:30:25;;;;;;;7.95;3.92;;;;;;;12.18;100.00;99049.75;5204449;28;20044;-76
2023/10/28 09:32:57;;;;;;;9.93;3.67;;;;;;;12.30;100.00;99059.38;5202444;28;20421;-74
2023/10/28 09:35:27;;;;;;;9.27;3.95;;;;;;;12.45;100.00;99055.75;5204283;28;20301;-76
2023/10/28 09:37:59;;;;;;;6.95;3.40;;;;;;;12.54;100.00;99059.53;5189695;28;20028;-75
2023/10/28 09:40:29;;;;;;;6.07;3.47;;;;;;;12.66;100.00;99066.56;5203150;28;20802;-74
2023/10/28 09:43:02;;;;;;;5.60;2.85;;;;;;;12.42;100.00;99063.81;5195844;28;20141;-76
2023/10/28 09:45:33;;;;;;;6.93;3.05;;;;;;;12.45;100.00;99068.84;5179776;28;20041;-76
2023/10/28 09:48:15;;;;;;;6.65;3.10;;;;;;;12.41;100.00;99067.38;5199789;28;20036;-75
2023/10/28 09:50:50;;;;;;;14.40;3.28;;;;;;;12.35;100.00;99067.81;5186028;28;20119;-74
2023/10/28 09:53:30;;;;;;;4.70;2.30;;;;;;;12.47;100.00;99069.59;5203959;28;20033;-75
2023/10/28 09:56:02;;;;;;;4.95;2.40;;;;;;;12.37;100.00;99076.41;5207121;28;20037;-75
2023/10/28 09:58:51;;;;;;;4.95;2.13;;;;;;;12.39;100.00;99084.13;5202807;28;20025;-76
2023/10/28 10:01:35;;;;;;;5.05;2.50;;;;;;;12.26;100.00;99078.88;5204712;28;20419;-74
2023/10/28 10:04:13;;;;;;;5.95;2.30;;;;;;;12.21;100.00;99070.50;5207377;28;20040;-75
2023/10/28 10:06:43;;;;;;;4.32;2.20;;;;;;;12.33;100.00;99071.47;5207975;28;20151;-75
2023/10/28 10:09:18;;;;;;;6.15;2.50;;;;;;;12.45;100.00;99071.47;5203720;28;20028;-76
2023/10/28 10:11:49;;;;;;;5.68;2.20;;;;;;;12.55;100.00;99069.94;5194041;28;20041;-77
2023/10/28 10:14:21;;;;;;;5.28;1.92;;;;;;;12.71;100.00;99064.47;5195956;28;20033;-76
2023/10/28 10:17:06;;;;;;;5.05;2.00;;;;;;;12.73;100.00;99070.44;5199479;28;20045;-74
2023/10/28 10:19:36;;;;;;;2.50;1.87;;;;;;;12.86;100.00;99069.53;5204404;28;20410;-76
2023/10/28 10:22:07;;;;;;;6.65;1.85;;;;;;;12.98;100.00;99068.69;5186720;28;20040;-76
2023/10/28 10:24:48;;;;;;;5.65;2.40;;;;;;;13.00;100.00;99074.66;5202855;28;20036;-74
2023/10/28 10:27:34;;;;;;;6.03;2.83;;;;;;;13.05;100.00;99075.22;5200302;28;20588;-77
2023/10/28 10:30:11;;;;;;;5.10;3.15;;;;;;;13.07;100.00;99068.88;5205781;28;20036;-76
2023/10/28 10:32:49;;;;;;;5.32;3.30;;;;;;;13.16;100.00;99070.03;5202196;28;20565;-74
2023/10/28 10:35:28;;;;;;;6.22;3.28;;;;;;;13.17;100.00;99074.31;5200067;28;20061;-76
2023/10/28 10:38:10;;;;;;;5.75;2.60;;;;;;;13.11;100.00;99065.13;5199336;28;20502;-76
2023/10/28 10:40:46;;;;;;;4.05;2.10;;;;;;;13.35;100.00;99073.88;5198881;28;20120;-75
2023/10/28 10:43:21;;;;;;;6.80;2.40;;;;;;;13.44;100.00;99067.16;5206532;28;20033;-75
2023/10/28 10:45:51;;;;;;;4.00;1.90;;;;;;;13.48;100.00;99058.09;5201634;28;20537;-73
2023/10/28 10:48:22;;;;;;;4.30;1.50;;;;;;;13.65;100.00;99062.97;5200882;28;20049;-74
2023/10/28 10:50:56;;;;;;;3.53;1.85;;;;;;;13.78;100.00;99056.72;5196733;28;20017;-73
2023/10/28 10:53:26;;;;;;;5.30;1.73;;;;;;;14.10;100.00;99052.59;5201099;28;20061;-74
2023/10/28 10:55:57;;;;;;;4.07;1.60;;;;;;;14.30;100.00;99059.03;5205664;28;20110;-78
2023/10/28 10:58:28;;;;;;;4.93;1.70;;;;;;;14.32;100.00;99054.50;5203212;28;20502;-76
2023/10/28 11:00:58;;;;;;;3.03;1.40;;;;;;;14.31;100.00;99052.81;5207173;28;20037;-74
2023/10/28 11:03:28;;;;;;;2.85;1.30;;;;;;;14.29;100.00;99047.66;5208466;28;20048;-77
2023/10/28 11:05:59;;;;;;;3.00;1.40;;;;;;;14.16;100.00;99054.81;5204770;28;20118;-78
2023/10/28 11:08:29;;;;;;;2.40;1.27;;;;;;;14.14;100.00;99048.81;5204007;28;20037;-78
2023/10/28 11:11:03;;;;;;;2.33;1.00;;;;;;;14.10;100.00;99047.31;5204614;28;20018;-77
2023/10/28 11:13:33;;;;;;;3.03;0.90;;;;;;;14.08;100.00;99043.16;5181243;28;20060;-78
2023/10/28 11:16:04;;;;;;;1.42;0.80;;;;;;;14.02;100.00;99054.09;5200221;28;20022;-78
2023/10/28 11:18:35;;;;;;;2.05;0.85;;;;;;;14.03;100.00;99051.38;5188433;28;20612;-77
2023/10/28 11:21:06;;;;;;;1.23;0.85;;;;;;;14.01;100.00;99049.81;5199790;28;20087;-76
2023/10/28 11:23:37;;;;;;;1.83;0.85;;;;;;;14.07;100.00;99052.00;5203016;28;20421;-75
2023/10/28 11:26:07;;;;;;;0.75;0.52;;;;;;;13.99;100.00;99056.97;5204329;28;20167;-75
2023/10/28 11:28:39;;;;;;;6.40;0.70;;;;;;;14.04;100.00;99052.19;5199702;28;20025;-74
2023/10/28 11:31:11;;;;;;;3.10;0.50;;;;;;;13.98;100.00;99052.66;5202376;28;20718;-75
2023/10/28 11:33:43;;;;;;;2.15;0.65;;;;;;;14.04;100.00;99041.69;5201783;28;20081;-74
2023/10/28 11:36:15;;;;;;;3.60;0.80;;;;;;;13.96;100.00;99044.06;5200276;28;20071;-77
2023/10/28 11:38:45;;;;;;;3.53;0.82;;;;;;;14.02;100.00;99046.22;5202032;28;20071;-76
2023/10/28 11:41:16;;;;;;;2.13;1.10;;;;;;;13.83;100.00;99053.78;5206507;28;20124;-76
2023/10/28 11:43:49;;;;;;;1.50;0.57;;;;;;;13.49;100.00;99044.03;5195499;28;20021;-75